Time;durP1;ratioP1;P1;durP2;ratioP2;P2;SDS_P1;SDS_P2;PMS_P1;PMS_P2;Temp;Humidity;BMP_temperature;BMP_pressure;BME280_temperature;BME280_humidity;BME280_pressure;Samples;Min_cycle;Max_cycle;Signal;HPM_P1;HPM_P2
2022/03/15 00:00:54;;;;;;;3.03;2.73;;;10.90;44.00;;;;;;5074658;28;20428;-51
2022/03/15 00:03:21;;;;;;;3.10;1.67;;;10.80;43.60;;;;;;5074637;28;20411;-51
2022/03/15 00:05:47;;;;;;;3.75;2.15;;;10.80;44.20;;;;;;5075917;28;20175;-51
2022/03/15 00:08:12;;;;;;;3.50;1.60;;;10.70;43.40;;;;;;5075892;28;20165;-52
2022/03/15 00:10:39;;;;;;;1.77;1.23;;;10.70;43.30;;;;;;5075767;28;20164;-52
2022/03/15 00:13:06;;;;;;;4.10;2.58;;;10.60;43.60;;;;;;5075920;28;20454;-52
2022/03/15 00:15:32;;;;;;;5.75;2.10;;;10.60;43.30;;;;;;5075532;28;20212;-52
2022/03/15 00:17:59;;;;;;;3.17;2.47;;;10.60;43.90;;;;;;5075547;28;20172;-51
2022/03/15 00:20:25;;;;;;;3.47;2.25;;;10.50;43.70;;;;;;5075659;28;20168;-52
2022/03/15 00:22:55;;;;;;;3.95;2.40;;;10.50;43.60;;;;;;5075550;28;20165;-51
2022/03/15 00:25:21;;;;;;;5.93;2.72;;;10.50;43.50;;;;;;5074253;28;20173;-51
2022/03/15 00:27:50;;;;;;;5.35;2.33;;;10.40;43.30;;;;;;5074143;28;20208;-51
2022/03/15 00:30:17;;;;;;;4.30;2.00;;;10.30;43.20;;;;;;5075495;28;20171;-51
2022/03/15 00:32:43;;;;;;;2.67;2.47;;;10.30;43.30;;;;;;5075388;28;20581;-52
2022/03/15 00:35:16;;;;;;;3.07;2.03;;;10.20;43.00;;;;;;5074852;28;20259;-51
2022/03/15 00:37:42;;;;;;;3.45;1.63;;;10.20;43.60;;;;;;5075303;28;20415;-52
2022/03/15 00:40:09;;;;;;;3.17;2.45;;;10.10;44.20;;;;;;5073777;28;20682;-52
2022/03/15 00:42:34;;;;;;;2.55;1.30;;;10.10;43.40;;;;;;5073864;28;20195;-51
2022/03/15 00:45:04;;;;;;;4.03;1.80;;;10.00;43.40;;;;;;5075109;28;20621;-52
2022/03/15 00:47:30;;;;;;;2.40;1.38;;;9.90;43.30;;;;;;5075213;28;20168;-52
2022/03/15 00:49:56;;;;;;;3.47;2.15;;;9.90;43.30;;;;;;5075217;28;20619;-52
2022/03/15 00:52:21;;;;;;;2.40;1.90;;;9.80;43.00;;;;;;5074944;28;20243;-52
2022/03/15 00:54:47;;;;;;;4.33;1.80;;;9.70;43.00;;;;;;5074869;28;20184;-52
2022/03/15 00:57:13;;;;;;;5.17;2.80;;;9.70;43.20;;;;;;5074886;28;20161;-52
2022/03/15 00:59:39;;;;;;;4.33;2.50;;;9.60;44.10;;;;;;5074720;28;20198;-51
2022/03/15 01:02:05;;;;;;;4.67;1.50;;;9.40;45.00;;;;;;5073441;28;20448;-52
2022/03/15 01:04:31;;;;;;;7.57;3.05;;;9.40;45.00;;;;;;5074771;28;20168;-52
2022/03/15 01:06:57;;;;;;;3.25;2.95;;;9.40;45.30;;;;;;5074644;28;20168;-51
2022/03/15 01:09:23;;;;;;;2.30;1.63;;;9.40;44.50;;;;;;5074690;28;20728;-51
2022/03/15 01:11:49;;;;;;;3.40;1.83;;;9.40;44.10;;;;;;5074556;28;20165;-52
2022/03/15 01:14:15;;;;;;;3.30;2.40;;;9.40;43.60;;;;;;5074512;28;20219;-52
2022/03/15 01:16:41;;;;;;;4.20;2.13;;;9.40;43.40;;;;;;5074355;28;20168;-51
2022/03/15 01:19:07;;;;;;;3.10;2.33;;;9.30;43.80;;;;;;5074303;28;20210;-51
2022/03/15 01:21:35;;;;;;;4.20;1.80;;;9.30;43.90;;;;;;5074333;28;20267;-51
2022/03/15 01:24:01;;;;;;;3.95;2.58;;;9.20;44.50;;;;;;5074301;28;20222;-52
2022/03/15 01:26:27;;;;;;;3.67;2.33;;;9.20;44.40;;;;;;5074525;28;20264;-51
2022/03/15 01:28:52;;;;;;;6.53;3.13;;;9.20;44.50;;;;;;5074157;28;20503;-51
2022/03/15 01:31:18;;;;;;;4.25;3.45;;;9.20;44.50;;;;;;5074140;28;20171;-51
2022/03/15 01:33:44;;;;;;;6.67;3.40;;;9.30;44.50;;;;;;5072865;28;20172;-51
2022/03/15 01:36:10;;;;;;;5.07;3.73;;;9.20;44.80;;;;;;5072836;28;20181;-52
2022/03/15 01:38:36;;;;;;;6.57;4.20;;;9.30;44.60;;;;;;5074048;28;20191;-52
2022/03/15 01:41:02;;;;;;;4.88;3.03;;;9.30;44.50;;;;;;5073997;28;20737;-51
2022/03/15 01:43:27;;;;;;;4.78;2.72;;;9.40;43.50;;;;;;5074038;28;20171;-51
2022/03/15 01:45:56;;;;;;;9.63;2.83;;;9.30;43.30;;;;;;5073334;28;20190;-51
2022/03/15 01:48:22;;;;;;;4.97;3.15;;;9.30;43.00;;;;;;5072573;28;20177;-51
2022/03/15 01:50:48;;;;;;;2.73;2.03;;;9.20;43.00;;;;;;5073875;28;20312;-51
2022/03/15 01:53:16;;;;;;;3.23;2.73;;;9.20;42.80;;;;;;5073809;28;20913;-52
2022/03/15 01:55:42;;;;;;;5.35;2.38;;;9.10;42.90;;;;;;5073810;28;20194;-51
2022/03/15 01:58:08;;;;;;;3.30;2.20;;;9.10;43.50;;;;;;5073951;28;20180;-52
2022/03/15 02:00:34;;;;;;;4.67;2.30;;;9.00;42.90;;;;;;5073806;28;20174;-52
2022/03/15 02:03:02;;;;;;;2.70;2.15;;;9.00;42.80;;;;;;5073141;28;20181;-52
2022/03/15 02:05:28;;;;;;;4.43;3.22;;;9.00;43.40;;;;;;5072385;28;20179;-51
2022/03/15 02:07:53;;;;;;;3.13;2.80;;;8.90;43.20;;;;;;5073741;28;20175;-51
2022/03/15 02:10:19;;;;;;;2.07;1.70;;;8.80;43.00;;;;;;5073717;28;20681;-51
2022/03/15 02:12:45;;;;;;;2.83;2.40;;;8.70;42.80;;;;;;5073665;28;20195;-51
2022/03/15 02:15:11;;;;;;;2.33;1.30;;;8.70;42.70;;;;;;5073291;28;20224;-51
2022/03/15 02:17:37;;;;;;;2.40;1.42;;;8.60;43.10;;;;;;5072224;28;20199;-51
2022/03/15 02:20:07;;;;;;;2.43;1.90;;;8.50;43.00;;;;;;5073504;28;20631;-51
2022/03/15 02:22:34;;;;;;;6.35;2.35;;;8.40;43.10;;;;;;5072510;28;20245;-51
2022/03/15 02:25:00;;;;;;;1.58;1.17;;;8.30;43.60;;;;;;5073510;28;20174;-51
2022/03/15 02:27:26;;;;;;;5.63;2.38;;;8.30;43.10;;;;;;5073428;28;20619;-51
2022/03/15 02:29:52;;;;;;;3.50;1.53;;;8.30;43.30;;;;;;5073500;28;20230;-51
2022/03/15 02:32:18;;;;;;;2.00;1.40;;;8.20;43.00;;;;;;5072411;28;20173;-51
2022/03/15 02:34:43;;;;;;;2.67;1.70;;;8.20;43.20;;;;;;5073353;28;20436;-51
2022/03/15 02:37:09;;;;;;;2.80;1.67;;;8.20;43.40;;;;;;5073325;28;20457;-51
2022/03/15 02:39:35;;;;;;;3.40;1.40;;;8.10;43.20;;;;;;5073149;28;20443;-51
2022/03/15 02:42:01;;;;;;;4.10;1.73;;;8.10;43.60;;;;;;5073396;28;20412;-51
2022/03/15 02:44:27;;;;;;;2.40;1.60;;;8.10;43.30;;;;;;5073324;28;20176;-51
2022/03/15 02:46:52;;;;;;;3.00;2.20;;;8.00;43.30;;;;;;5073243;28;20166;-51
2022/03/15 02:49:18;;;;;;;2.43;0.90;;;8.00;43.20;;;;;;5073215;28;20491;-51
2022/03/15 02:51:45;;;;;;;3.20;1.98;;;8.00;43.30;;;;;;5071799;28;20181;-51
2022/03/15 02:54:13;;;;;;;4.38;1.77;;;8.10;43.30;;;;;;5073147;28;20538;-51
2022/03/15 02:56:42;;;;;;;2.83;1.60;;;8.20;43.40;;;;;;5073160;28;20202;-51
2022/03/15 02:59:08;;;;;;;3.38;1.95;;;8.20;43.20;;;;;;5076548;28;20197;-51
2022/03/15 03:01:34;;;;;;;1.85;1.58;;;8.20;43.30;;;;;;5077032;28;20189;-51
2022/03/15 03:04:00;;;;;;;2.00;1.48;;;8.20;43.00;;;;;;5075737;28;20609;-51
2022/03/15 03:06:26;;;;;;;1.60;0.70;;;8.20;43.00;;;;;;5076938;28;20194;-51
2022/03/15 03:08:52;;;;;;;2.13;1.67;;;8.20;43.10;;;;;;5076904;28;20433;-51
2022/03/15 03:11:18;;;;;;;1.80;0.90;;;8.20;43.40;;;;;;5076814;28;20418;-51
2022/03/15 03:13:47;;;;;;;3.25;1.85;;;8.20;43.10;;;;;;5076571;28;20684;-51
2022/03/15 03:16:13;;;;;;;2.58;1.10;;;8.20;43.50;;;;;;5076915;28;20179;-51
2022/03/15 03:18:39;;;;;;;2.27;1.33;;;8.20;43.60;;;;;;5076704;28;20682;-51
2022/03/15 03:21:06;;;;;;;3.45;1.40;;;8.10;44.70;;;;;;5076229;28;20652;-51
2022/03/15 03:23:35;;;;;;;2.22;1.00;;;8.10;44.90;;;;;;5076618;28;20213;-51
2022/03/15 03:26:04;;;;;;;2.40;1.23;;;8.10;44.50;;;;;;5076627;28;20169;-51
2022/03/15 03:28:39;;;;;;;2.05;1.38;;;8.10;44.60;;;;;;5076539;28;20173;-51
2022/03/15 03:31:09;;;;;;;2.65;1.63;;;8.10;44.10;;;;;;5076680;28;20150;-51
2022/03/15 03:33:36;;;;;;;1.60;0.90;;;8.10;43.60;;;;;;5076478;28;20167;-51
2022/03/15 03:36:03;;;;;;;1.63;1.15;;;8.10;43.90;;;;;;5076462;28;20178;-51
2022/03/15 03:38:29;;;;;;;1.98;1.38;;;8.10;43.60;;;;;;5076256;28;20242;-51
2022/03/15 03:40:56;;;;;;;3.23;1.57;;;8.10;43.60;;;;;;5076389;28;20657;-51
2022/03/15 03:43:21;;;;;;;2.63;1.02;;;8.10;43.30;;;;;;5076230;28;20417;-51
2022/03/15 03:45:48;;;;;;;3.43;1.50;;;8.10;43.60;;;;;;5076320;28;20276;-51
2022/03/15 03:48:13;;;;;;;2.85;1.50;;;8.10;43.40;;;;;;5076180;28;20408;-51
2022/03/15 03:50:43;;;;;;;3.43;1.30;;;8.10;43.40;;;;;;5076244;28;20176;-51
2022/03/15 03:53:09;;;;;;;2.35;1.60;;;8.10;44.60;;;;;;5076157;28;20166;-51
2022/03/15 03:55:36;;;;;;;3.13;1.50;;;8.10;43.90;;;;;;5074778;28;20180;-51
2022/03/15 03:58:03;;;;;;;3.00;1.85;;;8.10;43.70;;;;;;5076028;28;20178;-51
2022/03/15 04:00:29;;;;;;;1.98;1.20;;;8.10;43.40;;;;;;5075962;28;20175;-51
2022/03/15 04:02:58;;;;;;;2.10;1.40;;;8.10;43.40;;;;;;5076063;28;20643;-51
2022/03/15 04:05:25;;;;;;;1.73;1.23;;;8.10;43.40;;;;;;5075810;28;20171;-51
2022/03/15 04:07:51;;;;;;;2.47;1.92;;;8.10;43.70;;;;;;5075866;28;20165;-51
2022/03/15 04:10:19;;;;;;;2.83;1.90;;;8.10;43.90;;;;;;5074948;28;20696;-51
2022/03/15 04:12:45;;;;;;;2.75;0.80;;;8.10;44.20;;;;;;5074806;28;20524;-51
2022/03/15 04:15:12;;;;;;;3.58;1.67;;;8.10;43.80;;;;;;5075419;28;20716;-51
2022/03/15 04:17:37;;;;;;;1.58;0.75;;;8.10;43.70;;;;;;5075724;28;20170;-51
2022/03/15 04:20:04;;;;;;;3.20;2.23;;;8.10;43.80;;;;;;5075522;28;20181;-51
2022/03/15 04:22:29;;;;;;;3.45;1.45;;;8.00;43.60;;;;;;5075477;28;20650;-51
2022/03/15 04:24:55;;;;;;;3.10;1.67;;;8.00;43.80;;;;;;5075565;28;20172;-51
2022/03/15 04:27:21;;;;;;;2.40;1.60;;;8.10;43.60;;;;;;5075564;28;20507;-51
2022/03/15 04:29:46;;;;;;;1.80;1.07;;;8.00;43.60;;;;;;5075472;28;20194;-51
2022/03/15 04:32:12;;;;;;;2.40;1.60;;;8.00;43.40;;;;;;5075326;28;20201;-51
2022/03/15 04:34:38;;;;;;;1.70;1.23;;;8.00;43.50;;;;;;5075386;28;20664;-51
2022/03/15 04:37:04;;;;;;;2.10;1.03;;;8.00;43.60;;;;;;5073997;28;20838;-51
2022/03/15 04:39:29;;;;;;;3.00;1.73;;;8.00;43.70;;;;;;5075207;28;20699;-51
2022/03/15 04:41:56;;;;;;;2.27;1.23;;;8.00;43.90;;;;;;5075189;28;20420;-51
2022/03/15 04:44:22;;;;;;;2.42;1.55;;;8.00;43.60;;;;;;5075145;28;20412;-51
2022/03/15 04:46:48;;;;;;;2.00;1.10;;;8.00;43.70;;;;;;5075053;28;20593;-51
2022/03/15 04:49:14;;;;;;;1.90;1.10;;;8.00;43.60;;;;;;5075281;28;20192;-51
2022/03/15 04:51:39;;;;;;;3.40;1.63;;;8.00;43.40;;;;;;5075036;28;20420;-51
2022/03/15 04:54:05;;;;;;;5.57;1.63;;;8.00;43.20;;;;;;5075195;28;20165;-51
2022/03/15 04:56:31;;;;;;;3.50;3.17;;;8.00;43.00;;;;;;5075482;28;20227;-51
2022/03/15 04:58:57;;;;;;;3.00;1.10;;;7.90;43.30;;;;;;5074768;28;20267;-51
2022/03/15 05:01:23;;;;;;;4.60;1.30;;;7.90;43.30;;;;;;5074974;28;20253;-51
2022/03/15 05:03:48;;;;;;;2.50;1.33;;;7.90;43.30;;;;;;5074788;28;20301;-51
2022/03/15 05:06:14;;;;;;;2.43;0.90;;;7.90;43.30;;;;;;5074576;28;20411;-51
2022/03/15 05:08:40;;;;;;;13.30;1.43;;;7.90;43.20;;;;;;5074556;28;20165;-51
2022/03/15 05:11:06;;;;;;;2.23;1.37;;;7.80;43.10;;;;;;5074496;28;20673;-52
2022/03/15 05:13:35;;;;;;;2.70;2.07;;;7.80;43.10;;;;;;5074535;28;20540;-52
2022/03/15 05:16:02;;;;;;;2.55;1.60;;;7.80;43.00;;;;;;5074459;28;20392;-51
2022/03/15 05:18:28;;;;;;;2.13;1.52;;;7.80;43.20;;;;;;5074332;28;20196;-51
2022/03/15 05:20:53;;;;;;;2.27;1.20;;;7.80;43.20;;;;;;5074242;28;20165;-51
2022/03/15 05:23:19;;;;;;;2.70;1.27;;;7.70;43.20;;;;;;5074302;28;20188;-51
2022/03/15 05:25:45;;;;;;;2.57;2.37;;;7.70;43.20;;;;;;5074471;28;20644;-51
2022/03/15 05:28:11;;;;;;;1.90;1.47;;;7.70;43.40;;;;;;5074170;28;20413;-51
2022/03/15 05:30:38;;;;;;;1.45;0.95;;;7.70;43.50;;;;;;5073998;28;20615;-51
2022/03/15 05:33:04;;;;;;;2.28;0.95;;;7.70;43.30;;;;;;5072284;28;20168;-51
2022/03/15 05:35:30;;;;;;;2.17;1.30;;;7.70;43.30;;;;;;5074266;28;20171;-51
2022/03/15 05:37:56;;;;;;;2.27;1.57;;;7.70;43.40;;;;;;5074009;28;20218;-51
2022/03/15 05:40:21;;;;;;;6.87;1.83;;;7.80;43.60;;;;;;5073982;28;20191;-51
2022/03/15 05:42:47;;;;;;;4.87;1.90;;;7.80;43.30;;;;;;5073902;28;20771;-51
2022/03/15 05:45:13;;;;;;;2.87;2.67;;;7.80;43.40;;;;;;5073452;28;20177;-51
2022/03/15 05:47:39;;;;;;;2.97;1.15;;;7.80;43.40;;;;;;5073722;28;20514;-51
2022/03/15 05:50:06;;;;;;;3.33;1.47;;;7.80;43.40;;;;;;5074037;28;20177;-51
2022/03/15 05:52:32;;;;;;;2.08;1.35;;;7.80;43.40;;;;;;5073757;28;20435;-51
2022/03/15 05:54:57;;;;;;;2.90;2.10;;;7.80;43.50;;;;;;5073633;28;20200;-51
2022/03/15 05:57:23;;;;;;;1.53;1.10;;;7.80;43.50;;;;;;5073584;28;20410;-51
2022/03/15 05:59:49;;;;;;;2.03;1.43;;;7.80;43.40;;;;;;5073638;28;20683;-51
2022/03/15 06:02:15;;;;;;;3.17;1.90;;;7.90;43.60;;;;;;5073659;28;20171;-51
2022/03/15 06:04:40;;;;;;;2.90;1.97;;;7.90;43.90;;;;;;5072555;28;20286;-51
2022/03/15 06:07:06;;;;;;;5.07;2.20;;;7.90;43.80;;;;;;5073670;28;20162;-51
2022/03/15 06:09:32;;;;;;;2.30;1.73;;;8.00;43.80;;;;;;5073470;28;20166;-51
2022/03/15 06:11:58;;;;;;;2.27;2.00;;;8.00;43.50;;;;;;5072235;28;20177;-51
2022/03/15 06:14:24;;;;;;;3.63;2.00;;;8.00;43.60;;;;;;5073336;28;20451;-51
2022/03/15 06:16:50;;;;;;;3.90;1.97;;;8.00;43.70;;;;;;5073840;28;20165;-51
2022/03/15 06:19:17;;;;;;;4.35;1.98;;;8.10;44.80;;;;;;5073315;28;20715;-51
2022/03/15 06:21:44;;;;;;;2.50;2.30;;;8.10;44.20;;;;;;5073404;28;20185;-51
2022/03/15 06:24:10;;;;;;;3.85;2.50;;;8.20;43.90;;;;;;5073406;28;20173;-51
2022/03/15 06:26:38;;;;;;;2.20;1.55;;;8.30;43.80;;;;;;5073368;28;20174;-51
2022/03/15 06:29:04;;;;;;;3.33;1.30;;;8.30;44.10;;;;;;5073178;28;20574;-51
2022/03/15 06:31:32;;;;;;;5.07;2.42;;;8.40;44.00;;;;;;5073237;28;20548;-51
2022/03/15 06:33:58;;;;;;;3.10;2.20;;;8.40;44.00;;;;;;5072830;28;20186;-51
2022/03/15 06:36:24;;;;;;;2.10;1.70;;;8.50;44.10;;;;;;5073200;28;20181;-51
2022/03/15 06:38:50;;;;;;;5.13;2.27;;;8.60;44.00;;;;;;5073601;28;20263;-51
2022/03/15 06:41:16;;;;;;;4.80;2.35;;;8.70;44.00;;;;;;5073374;28;20426;-51
2022/03/15 06:43:42;;;;;;;3.10;1.97;;;8.70;43.80;;;;;;5073143;28;20206;-51
2022/03/15 06:46:08;;;;;;;5.00;3.13;;;8.80;43.70;;;;;;5071809;28;20552;-51
2022/03/15 06:48:37;;;;;;;6.72;2.55;;;8.90;43.90;;;;;;5071756;28;20514;-51
2022/03/15 06:51:04;;;;;;;3.20;2.58;;;9.00;43.90;;;;;;5073163;28;20666;-51
2022/03/15 06:53:30;;;;;;;3.03;2.00;;;9.00;44.10;;;;;;5073113;28;20172;-51
2022/03/15 06:55:56;;;;;;;4.77;2.27;;;9.10;44.20;;;;;;5072166;28;20189;-51
2022/03/15 06:58:22;;;;;;;4.60;2.53;;;9.10;44.30;;;;;;5072920;28;20942;-51
2022/03/15 07:00:51;;;;;;;3.13;2.60;;;9.20;44.10;;;;;;5073008;28;20409;-51
2022/03/15 07:03:18;;;;;;;4.43;2.72;;;9.30;44.40;;;;;;5072642;28;20176;-51
2022/03/15 07:05:44;;;;;;;3.10;2.40;;;9.30;44.20;;;;;;5072992;28;20174;-51
2022/03/15 07:08:10;;;;;;;7.00;3.63;;;9.40;44.60;;;;;;5072950;28;20653;-51
2022/03/15 07:10:36;;;;;;;5.80;3.70;;;9.40;44.50;;;;;;5073143;28;21015;-51
2022/03/15 07:13:01;;;;;;;2.70;2.00;;;9.50;44.60;;;;;;5072864;28;20913;-51
2022/03/15 07:15:27;;;;;;;4.57;3.20;;;9.50;44.20;;;;;;5072826;28;20319;-51
2022/03/15 07:17:58;;;;;;;3.90;2.67;;;9.60;44.40;;;;;;5072812;28;20251;-51
2022/03/15 07:20:25;;;;;;;8.13;4.00;;;9.70;44.10;;;;;;5072754;28;20477;-51
2022/03/15 07:22:54;;;;;;;4.45;2.63;;;9.80;44.10;;;;;;5072933;28;20172;-51
2022/03/15 07:25:21;;;;;;;5.53;3.75;;;9.80;44.00;;;;;;5072636;28;20179;-51
2022/03/15 07:27:48;;;;;;;6.25;4.05;;;9.90;44.50;;;;;;5072834;28;20172;-51
2022/03/15 07:30:14;;;;;;;4.88;3.15;;;9.90;44.70;;;;;;5072701;28;20247;-51
2022/03/15 07:32:39;;;;;;;3.60;2.88;;;10.00;44.10;;;;;;5072770;28;20645;-51
2022/03/15 07:35:05;;;;;;;5.33;3.73;;;10.10;44.30;;;;;;5072689;28;20165;-51
2022/03/15 07:37:31;;;;;;;12.48;5.10;;;10.20;44.30;;;;;;5072693;28;20652;-51
2022/03/15 07:39:57;;;;;;;5.07;3.30;;;10.20;44.30;;;;;;5072546;28;20242;-51
2022/03/15 07:42:24;;;;;;;6.03;3.00;;;10.30;44.60;;;;;;5072566;28;20532;-51
2022/03/15 07:44:50;;;;;;;3.65;3.25;;;10.40;43.90;;;;;;5074067;28;20413;-50
2022/03/15 07:47:15;;;;;;;8.50;3.15;;;10.60;44.00;;;;;;5076189;28;20645;-51
2022/03/15 07:49:42;;;;;;;4.20;2.53;;;10.70;43.70;;;;;;5076220;28;20172;-51
2022/03/15 07:52:09;;;;;;;6.90;2.75;;;10.80;43.60;;;;;;5074728;28;20169;-51
2022/03/15 07:54:35;;;;;;;4.25;3.17;;;10.90;43.70;;;;;;5076075;28;20628;-51
2022/03/15 07:57:01;;;;;;;7.82;4.35;;;11.10;43.80;;;;;;5076238;28;20207;-51
2022/03/15 07:59:28;;;;;;;5.07;3.38;;;11.20;43.70;;;;;;5075833;28;20203;-51
2022/03/15 08:01:54;;;;;;;6.15;4.13;;;11.30;43.30;;;;;;5075778;28;20674;-51
2022/03/15 08:04:19;;;;;;;6.60;4.17;;;11.40;43.50;;;;;;5075842;28;20165;-51
2022/03/15 08:06:45;;;;;;;7.60;3.63;;;11.50;43.70;;;;;;5075270;28;20461;-51
2022/03/15 08:09:11;;;;;;;6.95;3.90;;;11.60;43.40;;;;;;5075718;28;20652;-51
2022/03/15 08:11:37;;;;;;;6.30;4.57;;;11.70;43.40;;;;;;5075677;28;20180;-51
2022/03/15 08:14:03;;;;;;;4.17;3.40;;;11.80;43.20;;;;;;5075514;28;20861;-51
2022/03/15 08:16:28;;;;;;;6.67;3.80;;;11.90;43.20;;;;;;5074531;28;21004;-51
2022/03/15 08:18:55;;;;;;;7.10;5.03;;;11.90;43.10;;;;;;5075607;28;20571;-51
2022/03/15 08:21:22;;;;;;;8.95;4.65;;;12.00;43.00;;;;;;5074279;28;20208;-51
2022/03/15 08:23:49;;;;;;;14.65;5.70;;;12.10;43.10;;;;;;5075623;28;20199;-51
2022/03/15 08:26:15;;;;;;;10.05;4.15;;;12.20;42.90;;;;;;5075471;28;20532;-51
2022/03/15 08:28:43;;;;;;;7.07;3.65;;;12.30;42.80;;;;;;5074072;28;20605;-51
2022/03/15 08:31:08;;;;;;;8.27;4.40;;;12.30;42.50;;;;;;5075512;28;20190;-51
2022/03/15 08:33:34;;;;;;;7.40;4.07;;;12.30;42.20;;;;;;5075312;28;20169;-51
2022/03/15 08:36:00;;;;;;;7.03;4.57;;;12.40;41.70;;;;;;5075397;28;20182;-51
2022/03/15 08:38:28;;;;;;;4.43;3.93;;;12.40;41.80;;;;;;5075160;28;20250;-51
2022/03/15 08:40:55;;;;;;;5.63;3.72;;;12.50;42.30;;;;;;5075379;28;20434;-51
2022/03/15 08:43:20;;;;;;;6.60;5.15;;;12.70;42.30;;;;;;5075102;28;20188;-51
2022/03/15 08:45:46;;;;;;;4.40;3.40;;;12.80;42.40;;;;;;5073709;28;20169;-51
2022/03/15 08:48:12;;;;;;;5.70;3.43;;;13.00;41.20;;;;;;5075143;28;20152;-51
2022/03/15 08:50:38;;;;;;;5.63;3.65;;;13.20;41.60;;;;;;5073722;28;20283;-51
2022/03/15 08:53:04;;;;;;;4.07;3.25;;;13.20;40.40;;;;;;5073615;28;20255;-52
2022/03/15 08:55:30;;;;;;;7.37;4.73;;;13.40;41.00;;;;;;5074606;28;20196;-52
2022/03/15 08:57:56;;;;;;;8.33;3.83;;;13.60;40.80;;;;;;5074795;28;20176;-51
2022/03/15 09:00:22;;;;;;;5.97;4.45;;;13.70;40.70;;;;;;5074741;28;20431;-52
2022/03/15 09:02:48;;;;;;;5.97;3.80;;;13.80;40.40;;;;;;5074727;28;20204;-52
2022/03/15 09:05:18;;;;;;;12.37;4.13;;;13.90;40.50;;;;;;5074672;28;20419;-52
2022/03/15 09:07:51;;;;;;;4.85;3.30;;;14.00;40.20;;;;;;5074883;28;20395;-52
2022/03/15 09:10:18;;;;;;;7.30;3.35;;;14.10;39.30;;;;;;5074688;28;20601;-52
2022/03/15 09:12:44;;;;;;;6.72;4.18;;;14.30;39.30;;;;;;5074536;28;20567;-51
2022/03/15 09:15:10;;;;;;;4.13;3.10;;;14.40;39.70;;;;;;5074299;28;20220;-52
2022/03/15 09:17:36;;;;;;;6.10;4.25;;;14.50;39.90;;;;;;5074657;28;20419;-52
2022/03/15 09:20:02;;;;;;;14.63;4.40;;;14.60;39.00;;;;;;5074360;28;20257;-52
2022/03/15 09:22:28;;;;;;;8.35;5.40;;;14.60;38.90;;;;;;5074272;28;20422;-51
2022/03/15 09:24:54;;;;;;;5.23;3.60;;;14.70;39.20;;;;;;5074377;28;20634;-52
2022/03/15 09:27:19;;;;;;;4.73;3.47;;;14.80;38.20;;;;;;5074235;28;20172;-51
2022/03/15 09:29:45;;;;;;;5.37;3.10;;;14.80;38.30;;;;;;5072877;28;20199;-51
2022/03/15 09:32:11;;;;;;;3.80;3.07;;;15.00;39.00;;;;;;5073094;28;20164;-51
2022/03/15 09:34:38;;;;;;;5.37;2.93;;;15.10;38.60;;;;;;5074097;28;20248;-52
2022/03/15 09:37:05;;;;;;;4.57;2.55;;;15.20;38.50;;;;;;5074031;28;20418;-51
2022/03/15 09:39:32;;;;;;;4.80;3.40;;;15.40;38.20;;;;;;5073938;28;20545;-51
2022/03/15 09:41:59;;;;;;;5.00;2.50;;;15.50;37.10;;;;;;5074053;28;20563;-51
2022/03/15 09:44:28;;;;;;;7.03;3.60;;;15.50;36.90;;;;;;5073968;28;20223;-51
2022/03/15 09:46:56;;;;;;;5.00;3.95;;;15.50;37.20;;;;;;5072500;28;20168;-52
2022/03/15 09:49:24;;;;;;;4.68;2.85;;;15.70;37.30;;;;;;5074139;28;20168;-51
2022/03/15 09:51:51;;;;;;;12.25;4.65;;;15.80;36.70;;;;;;5073740;28;20175;-51
2022/03/15 09:54:17;;;;;;;8.55;4.00;;;15.90;37.20;;;;;;5073773;28;20187;-51
2022/03/15 09:56:43;;;;;;;5.10;3.17;;;15.90;36.10;;;;;;5073730;28;20242;-52
2022/03/15 09:59:15;;;;;;;5.65;3.80;;;16.00;36.60;;;;;;5073730;28;20224;-52
2022/03/15 10:01:42;;;;;;;4.70;3.88;;;16.10;37.10;;;;;;5071789;28;20176;-52
2022/03/15 10:04:09;;;;;;;4.00;3.25;;;16.30;37.10;;;;;;5073580;28;20164;-52
2022/03/15 10:06:39;;;;;;;8.57;4.80;;;16.40;36.50;;;;;;5073385;28;20161;-51
2022/03/15 10:09:06;;;;;;;9.25;3.08;;;16.50;36.30;;;;;;5073104;28;20180;-52
2022/03/15 10:11:32;;;;;;;7.57;3.58;;;16.60;36.00;;;;;;5072304;28;20164;-52
2022/03/15 10:13:58;;;;;;;6.10;4.15;;;16.70;35.60;;;;;;5073248;28;20683;-52
2022/03/15 10:16:35;;;;;;;4.80;3.28;;;16.70;35.20;;;;;;5073637;28;20157;-51
2022/03/15 10:19:01;;;;;;;7.35;3.25;;;16.70;34.80;;;;;;5053442;28;20665;-52
2022/03/15 10:21:52;;;;;;;9.05;4.18;;;16.70;35.20;;;;;;5053596;28;20219;-52
2022/03/15 10:24:25;;;;;;;5.28;3.60;;;16.80;35.50;;;;;;5053321;28;20158;-51
2022/03/15 10:26:52;;;;;;;5.65;4.13;;;16.90;36.30;;;;;;5068853;28;20192;-52
2022/03/15 10:29:20;;;;;;;13.93;3.10;;;16.90;35.20;;;;;;5053312;28;20158;-52
2022/03/15 10:31:47;;;;;;;4.15;2.70;;;17.00;35.00;;;;;;5053996;28;20280;-51
2022/03/15 10:34:15;;;;;;;6.60;3.58;;;17.10;35.10;;;;;;5073360;28;20591;-51
2022/03/15 10:36:46;;;;;;;6.00;3.30;;;17.30;35.20;;;;;;5072019;28;20543;-51
2022/03/15 10:39:14;;;;;;;3.17;2.17;;;17.40;34.50;;;;;;5073304;28;20609;-51
2022/03/15 10:41:48;;;;;;;9.48;3.67;;;17.60;32.80;;;;;;5073363;28;20231;-51
2022/03/15 10:44:37;;;;;;;3.40;2.42;;;17.70;33.60;;;;;;5073515;28;20243;-51
2022/03/15 10:47:09;;;;;;;3.33;2.15;;;17.70;33.40;;;;;;5073485;28;20525;-51
2022/03/15 10:49:47;;;;;;;3.50;2.85;;;17.80;32.20;;;;;;5073186;28;20207;-51
2022/03/15 10:52:14;;;;;;;3.17;1.85;;;17.80;32.50;;;;;;5072504;28;20250;-51
2022/03/15 10:54:40;;;;;;;6.47;3.20;;;17.70;32.30;;;;;;5073130;28;20655;-51
2022/03/15 10:57:06;;;;;;;5.32;3.45;;;17.80;31.80;;;;;;5073254;28;20208;-51
2022/03/15 10:59:32;;;;;;;4.23;2.10;;;17.80;31.00;;;;;;5072900;28;20301;-51
2022/03/15 11:01:57;;;;;;;4.20;2.53;;;17.80;32.40;;;;;;5073132;28;20248;-51
2022/03/15 11:04:23;;;;;;;5.07;2.83;;;17.80;32.20;;;;;;5073033;28;20165;-51
2022/03/15 11:06:51;;;;;;;7.13;3.23;;;17.90;31.60;;;;;;5073085;28;20675;-51
2022/03/15 11:09:32;;;;;;;6.53;3.20;;;17.80;30.20;;;;;;5073011;28;20568;-51
2022/03/15 11:12:04;;;;;;;4.30;2.65;;;17.70;30.60;;;;;;5073082;28;20160;-51
2022/03/15 11:14:40;;;;;;;5.03;2.90;;;17.70;30.60;;;;;;5072784;28;20303;-51
2022/03/15 11:17:16;;;;;;;5.43;2.65;;;17.70;30.70;;;;;;5073012;28;20159;-51
2022/03/15 11:19:47;;;;;;;3.97;2.25;;;17.60;30.60;;;;;;5075545;28;20544;-51
2022/03/15 11:22:23;;;;;;;3.65;3.13;;;17.50;30.80;;;;;;5076772;28;20267;-51
2022/03/15 11:25:12;;;;;;;4.15;2.58;;;17.50;31.70;;;;;;5076607;28;20154;-51
2022/03/15 11:27:40;;;;;;;4.88;3.03;;;17.60;31.60;;;;;;5076397;28;20174;-51
2022/03/15 11:30:09;;;;;;;5.10;3.05;;;17.60;31.70;;;;;;5076554;28;20674;-51
2022/03/15 11:32:35;;;;;;;6.25;3.45;;;17.70;31.50;;;;;;5076401;28;20176;-51
2022/03/15 11:35:02;;;;;;;6.93;2.80;;;17.80;30.90;;;;;;5075174;28;20172;-51
2022/03/15 11:37:30;;;;;;;9.35;3.30;;;17.60;30.50;;;;;;5076394;28;20176;-51
2022/03/15 11:39:58;;;;;;;5.70;2.85;;;17.70;31.30;;;;;;5076315;28;20192;-51
2022/03/15 11:42:27;;;;;;;4.63;2.97;;;17.70;31.40;;;;;;5076239;28;20172;-51
2022/03/15 11:45:05;;;;;;;4.25;3.03;;;17.80;30.30;;;;;;5076334;28;20161;-51
2022/03/15 11:47:45;;;;;;;7.15;3.28;;;17.80;31.30;;;;;;5074963;28;20629;-51
2022/03/15 11:50:40;;;;;;;6.32;3.90;;;17.80;30.60;;;;;;5075789;28;20176;-51
2022/03/15 11:53:40;;;;;;;5.50;2.60;;;17.90;30.60;;;;;;5056503;28;20227;-51
2022/03/15 11:56:15;;;;;;;7.55;2.95;;;18.00;30.90;;;;;;5076059;28;20155;-51
2022/03/15 11:58:52;;;;;;;3.88;2.70;;;18.10;30.90;;;;;;5076236;28;20616;-51
2022/03/15 12:01:19;;;;;;;3.17;1.85;;;18.10;31.10;;;;;;5075850;28;20605;-51
2022/03/15 12:03:51;;;;;;;4.85;2.88;;;18.10;30.40;;;;;;5076075;28;20532;-51
2022/03/15 12:06:23;;;;;;;4.80;2.83;;;18.10;30.80;;;;;;5074539;28;20179;-51
2022/03/15 12:09:10;;;;;;;4.95;2.85;;;18.10;30.80;;;;;;5075775;28;20583;-50
2022/03/15 12:11:42;;;;;;;5.18;2.60;;;18.10;30.10;;;;;;5075847;28;20153;-51
2022/03/15 12:14:09;;;;;;;3.25;2.25;;;18.00;29.90;;;;;;5075588;28;20212;-51
2022/03/15 12:16:43;;;;;;;5.00;2.80;;;18.00;30.00;;;;;;5075872;28;20184;-51
2022/03/15 12:19:29;;;;;;;4.55;2.85;;;17.90;29.10;;;;;;5075600;28;20185;-51
2022/03/15 12:21:57;;;;;;;3.95;2.53;;;17.80;29.50;;;;;;5075683;28;20165;-51
2022/03/15 12:24:39;;;;;;;4.30;2.60;;;17.80;30.60;;;;;;5075534;28;20218;-51
2022/03/15 12:27:08;;;;;;;4.18;3.38;;;17.70;30.20;;;;;;5075422;28;20161;-51
2022/03/15 12:29:36;;;;;;;4.20;2.67;;;17.70;30.50;;;;;;5075385;28;20243;-51
2022/03/15 12:32:17;;;;;;;4.55;2.15;;;17.70;30.20;;;;;;5075079;28;20185;-51
2022/03/15 12:34:45;;;;;;;4.82;3.15;;;17.70;29.50;;;;;;5075536;28;20160;-51
2022/03/15 12:37:11;;;;;;;2.63;1.95;;;17.70;30.10;;;;;;5075260;28;20161;-51
2022/03/15 12:39:37;;;;;;;8.55;2.80;;;17.70;29.50;;;;;;5075145;28;20249;-51
2022/03/15 12:42:05;;;;;;;5.63;2.87;;;17.70;30.50;;;;;;5075194;28;20688;-51
2022/03/15 12:45:03;;;;;;;3.80;2.55;;;17.80;30.40;;;;;;5075109;28;20403;-51
2022/03/15 12:47:30;;;;;;;5.93;3.20;;;17.80;29.80;;;;;;5074628;28;20237;-51
2022/03/15 12:50:09;;;;;;;3.78;2.70;;;17.80;30.00;;;;;;5075198;28;20165;-51
2022/03/15 12:52:39;;;;;;;2.70;2.35;;;17.80;29.20;;;;;;5074886;28;20761;-51
2022/03/15 12:55:06;;;;;;;6.53;2.83;;;17.70;29.10;;;;;;5075178;28;20263;-51